createdAt,value
2023-03-08T00:00:38.551Z,98806.00
2023-03-08T00:03:42.876Z,98808.66
2023-03-08T00:06:48.210Z,98808.81
2023-03-08T00:09:52.172Z,98806.88
2023-03-08T00:12:55.784Z,98806.53
2023-03-08T00:16:01.569Z,98812.19
2023-03-08T00:19:05.510Z,98815.81
2023-03-08T00:22:11.604Z,98807.66
2023-03-08T00:25:16.720Z,98804.91
2023-03-08T00:28:20.494Z,98811.25
2023-03-08T00:31:24.463Z,98807.97
2023-03-08T00:34:30.521Z,98814.03
2023-03-08T00:37:35.906Z,98812.53
2023-03-08T00:40:39.639Z,98803.72
2023-03-08T00:43:43.677Z,98808.63
2023-03-08T00:46:47.472Z,98802.28
2023-03-08T00:49:51.324Z,98805.72
2023-03-08T00:52:56.958Z,98800.31
2023-03-08T00:56:01.586Z,98800.47
2023-03-08T00:59:07.710Z,98800.97
2023-03-08T01:02:12.515Z,98792.81
2023-03-08T01:05:17.049Z,98807.84
2023-03-08T01:08:24.056Z,98796.22
2023-03-08T01:11:29.133Z,98795.28
2023-03-08T01:14:32.739Z,98805.22
2023-03-08T01:17:36.788Z,98798.88
2023-03-08T01:20:41.434Z,98797.72
2023-03-08T01:23:46.639Z,98799.84
2023-03-08T01:26:50.514Z,98803.09
2023-03-08T01:29:54.920Z,98804.09
2023-03-08T01:33:00.821Z,98808.63
2023-03-08T01:36:06.421Z,98807.97
2023-03-08T01:39:11.757Z,98793.81
2023-03-08T01:42:15.443Z,98800.81
2023-03-08T01:45:56.567Z,98800.44
2023-03-08T01:49:07.845Z,98804.84
2023-03-08T01:52:15.927Z,98797.28
2023-03-08T01:55:21.431Z,98814.94
2023-03-08T01:58:27.091Z,98818.06
2023-03-08T02:01:31.091Z,98808.88
2023-03-08T02:04:36.664Z,98812.28
2023-03-08T02:07:42.943Z,98807.28
2023-03-08T02:10:48.545Z,98806.63
2023-03-08T02:13:54.431Z,98794.59
2023-03-08T02:16:59.334Z,98799.28
2023-03-08T02:20:12.382Z,98795.47
2023-03-08T02:23:19.490Z,98800.09
2023-03-08T02:26:23.304Z,98802.91
2023-03-08T02:29:26.871Z,98793.44
2023-03-08T02:32:31.456Z,98796.28
2023-03-08T02:35:38.860Z,98809.00
2023-03-08T02:38:43.917Z,98819.41
2023-03-08T02:41:47.576Z,98827.00
2023-03-08T02:44:51.172Z,98828.41
2023-03-08T02:47:54.816Z,98822.75
2023-03-08T02:50:59.022Z,98817.22
2023-03-08T02:54:04.206Z,98821.34
2023-03-08T02:57:08.011Z,98821.22
2023-03-08T03:00:15.039Z,98827.25
2023-03-08T03:03:19.160Z,98831.53
2023-03-08T03:06:24.142Z,98838.34
2023-03-08T03:09:32.851Z,98830.63
2023-03-08T03:12:36.688Z,98831.97
2023-03-08T03:15:43.391Z,98838.19
2023-03-08T03:18:47.454Z,98829.00
2023-03-08T03:21:51.094Z,98834.41
2023-03-08T03:24:56.536Z,98829.81
2023-03-08T03:28:00.488Z,98826.00
2023-03-08T03:31:09.291Z,98838.69
2023-03-08T03:34:13.368Z,98837.03
2023-03-08T03:37:18.589Z,98843.38
2023-03-08T03:40:23.818Z,98838.84
2023-03-08T03:43:33.322Z,98839.16
2023-03-08T03:46:37.408Z,98865.53
2023-03-08T03:49:43.845Z,98861.91
2023-03-08T03:52:48.831Z,98865.84
2023-03-08T03:55:54.521Z,98864.28
2023-03-08T03:58:59.140Z,98873.06
2023-03-08T04:02:04.633Z,98868.50
2023-03-08T04:05:18.412Z,98870.31
2023-03-08T04:08:26.630Z,98863.41
2023-03-08T04:11:36.340Z,98871.56
2023-03-08T04:14:40.963Z,98876.28
2023-03-08T04:17:46.839Z,98872.78
2023-03-08T04:20:51.358Z,98873.25
2023-03-08T04:23:56.298Z,98883.69
2023-03-08T04:27:02.154Z,98893.13
2023-03-08T04:30:08.197Z,98901.69
2023-03-08T04:33:12.856Z,98906.84
2023-03-08T04:36:24.672Z,98896.97
2023-03-08T04:39:31.163Z,98912.31
2023-03-08T04:42:36.706Z,98906.38
2023-03-08T04:45:40.844Z,98902.00
2023-03-08T04:48:48.907Z,98896.88
2023-03-08T04:51:53.914Z,98899.41
2023-03-08T04:54:59.350Z,98891.78
2023-03-08T04:58:06.558Z,98894.94
2023-03-08T05:01:11.979Z,98905.88
2023-03-08T05:04:18.836Z,98898.59
2023-03-08T05:07:23.762Z,98904.56
2023-03-08T05:10:30.222Z,98894.81
2023-03-08T05:13:36.848Z,98889.22
2023-03-08T05:16:41.822Z,98897.09
2023-03-08T05:19:46.646Z,98900.31
2023-03-08T05:22:58.855Z,98901.06
2023-03-08T05:26:10.499Z,98921.69
2023-03-08T05:29:16.138Z,98914.41
2023-03-08T05:32:20.870Z,98913.97
2023-03-08T05:35:26.768Z,98913.75
2023-03-08T05:38:31.154Z,98907.78
2023-03-08T05:41:36.365Z,98918.28
2023-03-08T05:44:42.596Z,98920.44
2023-03-08T05:47:48.945Z,98926.59
2023-03-08T05:50:53.082Z,98933.25
2023-03-08T05:53:57.276Z,98939.75
2023-03-08T05:57:01.291Z,98941.44
2023-03-08T06:00:09.719Z,98942.50
2023-03-08T06:03:29.927Z,98950.94
2023-03-08T06:06:34.974Z,98956.22
2023-03-08T06:09:41.397Z,98962.03
2023-03-08T06:12:50.269Z,98965.38
2023-03-08T06:15:59.442Z,98965.94
2023-03-08T06:19:05.288Z,98964.53
2023-03-08T06:22:10.967Z,98968.13
2023-03-08T06:25:14.860Z,98966.59
2023-03-08T06:28:19.740Z,98965.34
2023-03-08T06:31:25.320Z,98964.34
2023-03-08T06:34:29.411Z,98971.44
2023-03-08T06:37:35.398Z,98983.22
2023-03-08T06:40:40.409Z,98993.66
2023-03-08T06:43:44.549Z,99004.75
2023-03-08T06:46:50.419Z,99019.06
2023-03-08T06:49:54.345Z,99012.38
2023-03-08T06:52:58.221Z,99016.75
2023-03-08T06:56:18.503Z,99020.34
2023-03-08T06:59:22.500Z,99014.59
2023-03-08T07:02:28.229Z,99024.19
2023-03-08T07:05:32.015Z,99031.44
2023-03-08T07:08:37.195Z,99024.34
2023-03-08T07:11:41.150Z,99022.09
2023-03-08T07:14:44.842Z,99026.09
2023-03-08T07:17:51.815Z,99022.78
2023-03-08T07:20:57.206Z,99032.47
2023-03-08T07:24:00.961Z,99022.19
2023-03-08T07:27:04.967Z,99022.91
2023-03-08T07:30:11.139Z,99026.09
2023-03-08T07:33:16.447Z,99030.78
2023-03-08T07:36:20.355Z,99020.66
2023-03-08T07:39:24.595Z,99027.31
2023-03-08T07:42:28.479Z,99027.66
2023-03-08T07:45:39.929Z,99021.66
2023-03-08T07:48:45.358Z,99025.50
2023-03-08T07:51:51.652Z,99025.50
2023-03-08T07:54:55.465Z,99026.00
2023-03-08T07:57:59.302Z,99027.72
2023-03-08T08:01:03.574Z,99023.22
2023-03-08T08:04:09.913Z,99023.41
2023-03-08T08:07:15.317Z,99025.00
2023-03-08T08:10:19.544Z,99019.28
2023-03-08T08:13:23.694Z,99019.59
2023-03-08T08:16:27.652Z,99022.44
2023-03-08T08:19:33.228Z,99012.94
2023-03-08T08:22:37.908Z,99015.97
2023-03-08T08:25:41.854Z,99018.81
2023-03-08T08:28:49.266Z,99012.50
2023-03-08T08:31:53.552Z,99017.38
2023-03-08T08:35:00.351Z,99029.09
2023-03-08T08:38:04.346Z,99025.38
2023-03-08T08:41:09.615Z,99027.91
2023-03-08T08:44:13.348Z,99029.34
2023-03-08T08:47:17.229Z,99033.56
2023-03-08T08:50:22.538Z,99030.44
2023-03-08T08:53:26.706Z,99026.13
2023-03-08T08:56:31.190Z,99026.06
2023-03-08T08:59:37.263Z,99024.69
2023-03-08T09:02:41.226Z,99015.44
2023-03-08T09:05:47.105Z,99007.03
2023-03-08T09:08:52.267Z,99008.38
2023-03-08T09:11:56.232Z,98996.81
2023-03-08T09:15:00.769Z,98997.69
2023-03-08T09:18:04.683Z,98985.56
2023-03-08T09:21:10.044Z,98983.81
2023-03-08T09:24:14.285Z,98974.50
2023-03-08T09:27:18.138Z,98982.97
2023-03-08T09:30:22.126Z,98979.09
2023-03-08T09:33:26.449Z,98979.34
2023-03-08T09:36:31.880Z,98977.53
2023-03-08T09:39:36.086Z,98977.44
2023-03-08T09:42:40.324Z,98979.47
2023-03-08T09:45:44.291Z,98976.31
2023-03-08T09:48:51.748Z,98984.53
2023-03-08T09:52:03.455Z,98980.81
2023-03-08T09:55:15.922Z,98971.41
2023-03-08T09:58:32.324Z,98976.53
2023-03-08T10:01:40.730Z,98971.97
2023-03-08T10:05:11.460Z,98971.94
2023-03-08T10:08:19.749Z,98966.38
2023-03-08T10:11:32.982Z,98966.50
2023-03-08T10:14:38.985Z,98967.25
2023-03-08T10:17:50.664Z,98962.97
2023-03-08T10:20:55.201Z,98959.44
2023-03-08T10:24:07.001Z,98957.31
2023-03-08T10:27:18.574Z,98950.28
2023-03-08T10:30:25.333Z,98954.22
2023-03-08T10:33:35.129Z,98945.75
2023-03-08T10:36:49.727Z,98935.22
2023-03-08T10:39:59.983Z,98934.91
2023-03-08T10:43:08.101Z,98926.94
2023-03-08T10:46:15.530Z,98926.56
2023-03-08T10:49:20.937Z,98920.31
2023-03-08T10:52:28.483Z,98912.41
2023-03-08T10:55:43.546Z,98911.47
2023-03-08T10:58:49.443Z,98907.47
2023-03-08T11:01:55.786Z,98905.53
2023-03-08T11:05:02.383Z,98890.22
2023-03-08T11:08:16.582Z,98885.09
2023-03-08T11:11:21.937Z,98886.44
2023-03-08T11:14:26.608Z,98880.69
2023-03-08T11:17:38.004Z,98868.97
2023-03-08T11:20:46.850Z,98871.69
2023-03-08T11:23:59.690Z,98865.38
2023-03-08T11:27:20.120Z,98860.31
2023-03-08T11:30:37.043Z,98850.97
2023-03-08T11:34:04.578Z,98853.63
2023-03-08T11:37:15.326Z,98847.34
2023-03-08T11:40:26.309Z,98846.22
2023-03-08T11:43:49.454Z,98838.03
2023-03-08T11:47:03.557Z,98836.25
2023-03-08T11:50:14.128Z,98825.72
2023-03-08T11:53:24.904Z,98826.25
2023-03-08T11:56:41.953Z,98832.50
2023-03-08T11:59:56.957Z,98826.72
2023-03-08T12:03:07.826Z,98827.44
2023-03-08T12:06:27.936Z,98825.44
2023-03-08T12:09:37.919Z,98819.22
2023-03-08T12:12:46.428Z,98816.06
2023-03-08T12:15:56.438Z,98800.13
2023-03-08T12:19:07.179Z,98801.44
2023-03-08T12:22:23.495Z,98805.28
2023-03-08T12:25:31.077Z,98792.53
2023-03-08T12:28:38.831Z,98805.19
2023-03-08T12:31:47.230Z,98809.03
2023-03-08T12:35:04.259Z,98800.47
2023-03-08T12:38:23.993Z,98799.09
2023-03-08T12:41:30.254Z,98804.38
2023-03-08T12:44:34.194Z,98802.34
2023-03-08T12:47:40.151Z,98800.50
2023-03-08T12:50:47.831Z,98796.41
2023-03-08T12:54:01.223Z,98794.50
2023-03-08T12:57:18.178Z,98795.53
2023-03-08T13:00:31.173Z,98794.31
2023-03-08T13:03:41.556Z,98791.53
2023-03-08T13:07:18.759Z,98787.84
2023-03-08T13:10:27.690Z,98785.53
2023-03-08T13:13:40.955Z,98779.13
2023-03-08T13:16:44.928Z,98782.78
2023-03-08T13:19:52.485Z,98777.34
2023-03-08T13:23:04.126Z,98774.50
2023-03-08T13:26:47.711Z,98776.13
2023-03-08T13:29:55.272Z,98770.34
2023-03-08T13:33:00.067Z,98774.38
2023-03-08T13:36:07.457Z,98780.25
2023-03-08T13:39:20.945Z,98779.13
2023-03-08T13:42:26.205Z,98781.75
2023-03-08T13:45:30.936Z,98772.38
2023-03-08T13:48:37.244Z,98775.34
2023-03-08T13:51:45.904Z,98766.41
2023-03-08T13:54:53.420Z,98766.13
2023-03-08T13:57:57.670Z,98761.88
2023-03-08T14:01:03.739Z,98755.38
2023-03-08T14:04:13.414Z,98756.81
2023-03-08T14:07:24.121Z,98751.72
2023-03-08T14:10:33.946Z,98745.13
2023-03-08T14:13:40.129Z,98748.34
2023-03-08T14:16:44.579Z,98743.06
2023-03-08T14:19:55.569Z,98738.69
2023-03-08T14:23:01.320Z,98741.78
2023-03-08T14:26:05.887Z,98740.41
2023-03-08T14:29:20.344Z,98744.81
2023-03-08T14:32:32.367Z,98740.50
2023-03-08T14:35:38.912Z,98738.69
2023-03-08T14:38:44.252Z,98742.19
2023-03-08T14:41:48.328Z,98745.31
2023-03-08T14:44:54.136Z,98737.06
2023-03-08T14:47:59.706Z,98737.72
2023-03-08T14:51:05.268Z,98736.13
2023-03-08T14:54:23.967Z,98728.63
2023-03-08T14:57:30.722Z,98738.03
2023-03-08T15:00:34.557Z,98729.03
2023-03-08T15:03:38.344Z,98738.53
2023-03-08T15:06:42.596Z,98734.94
2023-03-08T15:09:48.721Z,98728.75
2023-03-08T15:12:52.805Z,98737.13
2023-03-08T15:15:56.736Z,98734.03
2023-03-08T15:19:00.493Z,98736.94
2023-03-08T15:22:07.043Z,98734.00
2023-03-08T15:25:18.336Z,98737.63
2023-03-08T15:28:23.836Z,98742.72
2023-03-08T15:31:27.715Z,98735.75
2023-03-08T15:34:31.475Z,98736.56
2023-03-08T15:37:35.171Z,98730.22
2023-03-08T15:40:40.530Z,98723.94
2023-03-08T15:43:44.630Z,98726.84
2023-03-08T15:46:49.923Z,98727.63
2023-03-08T15:49:55.385Z,98730.84
2023-03-08T15:52:59.640Z,98729.34
2023-03-08T15:56:05.037Z,98734.44
2023-03-08T15:59:09.169Z,98742.84
2023-03-08T16:02:16.396Z,98746.50
2023-03-08T16:05:23.052Z,98739.78
2023-03-08T16:08:29.144Z,98743.41
2023-03-08T16:11:34.297Z,98737.75
2023-03-08T16:14:38.489Z,98750.59
2023-03-08T16:17:42.288Z,98753.09
2023-03-08T16:20:46.448Z,98758.09
2023-03-08T16:23:50.411Z,98763.78
2023-03-08T16:26:56.182Z,98766.22
2023-03-08T16:30:00.262Z,98765.00
2023-03-08T16:33:05.989Z,98768.09
2023-03-08T16:36:10.876Z,98768.72
2023-03-08T16:39:14.651Z,98768.31
2023-03-08T16:42:20.879Z,98774.06
2023-03-08T16:45:24.723Z,98779.97
2023-03-08T16:48:29.881Z,98791.31
2023-03-08T16:51:33.678Z,98781.03
2023-03-08T16:54:38.055Z,98781.72
2023-03-08T16:57:43.294Z,98783.16
2023-03-08T17:00:47.298Z,98784.56
2023-03-08T17:03:52.025Z,98784.81
2023-03-08T17:06:55.861Z,98789.88
2023-03-08T17:10:02.863Z,98794.13
2023-03-08T17:13:08.876Z,98806.47
2023-03-08T17:16:13.999Z,98797.78
2023-03-08T17:19:17.922Z,98805.72
2023-03-08T17:22:21.745Z,98803.06
2023-03-08T17:25:25.546Z,98799.03
2023-03-08T17:28:30.934Z,98798.66
2023-03-08T17:31:34.924Z,98806.56
2023-03-08T17:34:38.817Z,98808.16
2023-03-08T17:37:42.971Z,98805.16
2023-03-08T17:40:47.805Z,98805.38
2023-03-08T17:43:53.131Z,98805.16
2023-03-08T17:46:57.036Z,98795.00
2023-03-08T17:50:01.051Z,98791.56
2023-03-08T17:53:05.263Z,98787.31
2023-03-08T17:56:10.643Z,98792.56
2023-03-08T17:59:17.569Z,98785.66
2023-03-08T18:02:22.397Z,98792.16
2023-03-08T18:05:26.467Z,98787.91
2023-03-08T18:08:30.449Z,98790.13
2023-03-08T18:11:38.091Z,98781.81
2023-03-08T18:14:43.730Z,98780.41
2023-03-08T18:17:48.077Z,98778.59
2023-03-08T18:20:53.989Z,98778.19
2023-03-08T18:23:59.739Z,98773.09
2023-03-08T18:27:05.643Z,98778.19
2023-03-08T18:30:13.938Z,98786.09
2023-03-08T18:33:18.083Z,98781.00
2023-03-08T18:36:22.597Z,98790.94
2023-03-08T18:39:27.426Z,98801.06
2023-03-08T18:42:32.534Z,98794.75
2023-03-08T18:45:39.091Z,98806.50
2023-03-08T18:48:43.302Z,98806.47
2023-03-08T18:51:47.379Z,98810.94
2023-03-08T18:54:51.365Z,98831.16
2023-03-08T18:57:55.204Z,98845.69
2023-03-08T19:01:03.044Z,98856.38
2023-03-08T19:04:08.279Z,98859.59
2023-03-08T19:07:13.188Z,98858.19
2023-03-08T19:10:17.080Z,98852.56
2023-03-08T19:13:21.002Z,98850.41
2023-03-08T19:16:27.833Z,98847.56
2023-03-08T19:19:32.136Z,98851.94
2023-03-08T19:22:35.902Z,98856.94
2023-03-08T19:26:00.512Z,98861.09
2023-03-08T19:29:07.059Z,98856.75
2023-03-08T19:32:14.341Z,98861.59
2023-03-08T19:35:18.331Z,98865.66
2023-03-08T19:38:22.074Z,98871.00
2023-03-08T19:41:26.369Z,98870.75
2023-03-08T19:44:31.133Z,98859.34
2023-03-08T19:47:37.133Z,98865.13
2023-03-08T19:50:46.173Z,98868.75
2023-03-08T19:53:50.029Z,98868.56
2023-03-08T19:56:54.806Z,98878.81
2023-03-08T20:00:00.754Z,98885.38
2023-03-08T20:03:06.071Z,98882.59
2023-03-08T20:06:11.062Z,98894.25
2023-03-08T20:09:18.507Z,98887.19
2023-03-08T20:12:22.273Z,98891.06
2023-03-08T20:15:26.183Z,98902.16
2023-03-08T20:18:31.543Z,98908.75
2023-03-08T20:21:35.362Z,98908.69
2023-03-08T20:24:39.139Z,98911.69
2023-03-08T20:27:44.165Z,98916.22
2023-03-08T20:30:48.178Z,98932.06
2023-03-08T20:33:53.677Z,98939.88
2023-03-08T20:36:57.650Z,98940.16
2023-03-08T20:40:04.540Z,98942.72
2023-03-08T20:43:11.229Z,98946.47
2023-03-08T20:46:17.216Z,98943.94
2023-03-08T20:49:22.539Z,98953.28
2023-03-08T20:52:26.284Z,98959.25
2023-03-08T20:55:30.114Z,98958.91
2023-03-08T20:58:34.148Z,98957.19
2023-03-08T21:01:38.027Z,98964.25
2023-03-08T21:04:43.259Z,98974.00
2023-03-08T21:07:47.077Z,98969.16
2023-03-08T21:10:51.061Z,98964.16
2023-03-08T21:13:55.704Z,98962.25
2023-03-08T21:16:59.585Z,98955.66
2023-03-08T21:20:05.453Z,98952.72
2023-03-08T21:23:09.186Z,98968.91
2023-03-08T21:26:14.208Z,98962.03
2023-03-08T21:29:20.576Z,98959.41
2023-03-08T21:32:26.331Z,98975.44
2023-03-08T21:35:32.858Z,98980.84
2023-03-08T21:38:36.813Z,98976.16
2023-03-08T21:41:42.828Z,98963.66
2023-03-08T21:44:46.671Z,98969.75
2023-03-08T21:47:50.355Z,98978.34
2023-03-08T21:50:55.641Z,98960.94
2023-03-08T21:53:59.842Z,98962.19
2023-03-08T21:57:03.691Z,98974.56
2023-03-08T22:00:08.885Z,98964.91
2023-03-08T22:03:15.704Z,98953.34
2023-03-08T22:06:21.620Z,98954.56
2023-03-08T22:09:27.231Z,98942.44
2023-03-08T22:12:31.195Z,98941.31
2023-03-08T22:15:35.037Z,98941.34
2023-03-08T22:18:38.891Z,98938.81
2023-03-08T22:21:44.179Z,98935.63
2023-03-08T22:24:48.148Z,98921.50
2023-03-08T22:27:51.961Z,98924.69
2023-03-08T22:30:55.966Z,98921.38
2023-03-08T22:34:01.584Z,98920.50
2023-03-08T22:37:07.236Z,98917.78
2023-03-08T22:40:13.370Z,98912.66
2023-03-08T22:43:17.426Z,98914.22
2023-03-08T22:46:24.071Z,98914.97
2023-03-08T22:49:28.025Z,98911.44
2023-03-08T22:52:33.466Z,98907.19
2023-03-08T22:55:37.317Z,98911.50
2023-03-08T22:58:41.326Z,98904.97
2023-03-08T23:01:45.331Z,98908.59
2023-03-08T23:04:49.319Z,98908.28
2023-03-08T23:07:54.823Z,98915.72
2023-03-08T23:10:59.060Z,98913.09
2023-03-08T23:14:03.498Z,98914.22
2023-03-08T23:17:07.559Z,98916.09
2023-03-08T23:20:13.776Z,98931.53
2023-03-08T23:23:19.261Z,98939.25
2023-03-08T23:26:27.120Z,98933.59
2023-03-08T23:29:31.552Z,98933.25
2023-03-08T23:32:35.585Z,98931.44
2023-03-08T23:35:39.617Z,98940.56
2023-03-08T23:38:45.118Z,98942.44
2023-03-08T23:41:49.087Z,98938.63
2023-03-08T23:44:53.478Z,98954.34
2023-03-08T23:47:57.264Z,98960.31
2023-03-08T23:51:01.110Z,98954.25
2023-03-08T23:54:06.448Z,98961.66
2023-03-08T23:57:10.446Z,98952.22
